createdAt,value
2023-05-25T00:03:27.852Z,4.28
2023-05-25T00:06:31.551Z,4.00
2023-05-25T00:09:33.762Z,4.43
2023-05-25T00:12:37.046Z,3.78
2023-05-25T00:15:39.125Z,3.63
2023-05-25T00:18:41.719Z,4.82
2023-05-25T00:21:44.639Z,3.58
2023-05-25T00:24:46.744Z,4.03
2023-05-25T00:27:48.892Z,3.90
2023-05-25T00:30:51.247Z,4.07
2023-05-25T00:33:53.939Z,4.68
2023-05-25T00:36:56.070Z,4.32
2023-05-25T00:39:58.174Z,4.38
2023-05-25T00:43:00.778Z,4.00
2023-05-25T00:46:03.598Z,4.07
2023-05-25T00:49:05.858Z,4.50
2023-05-25T00:52:12.000Z,4.25
2023-05-25T00:55:24.059Z,4.68
2023-05-25T00:58:31.033Z,5.55
2023-05-25T01:01:40.405Z,4.78
2023-05-25T01:04:45.668Z,4.90
2023-05-25T01:07:49.509Z,4.78
2023-05-25T01:10:53.919Z,4.72
2023-05-25T01:13:58.357Z,4.57
2023-05-25T01:17:00.978Z,4.85
2023-05-25T01:23:14.107Z,5.18
2023-05-25T01:26:18.710Z,4.65
2023-05-25T01:29:22.804Z,4.65
2023-05-25T01:32:25.505Z,4.15
2023-05-25T01:35:28.355Z,4.00
2023-05-25T01:38:30.847Z,5.63
2023-05-25T01:41:32.905Z,4.43
2023-05-25T01:44:36.056Z,3.85
2023-05-25T01:48:01.472Z,4.07
2023-05-25T01:51:12.928Z,4.05
2023-05-25T01:54:20.273Z,4.50
2023-05-25T01:57:23.250Z,5.50
2023-05-25T02:00:31.992Z,5.55
2023-05-25T02:03:34.247Z,5.10
2023-05-25T02:06:37.338Z,4.43
2023-05-25T02:09:39.505Z,5.63
2023-05-25T02:12:41.683Z,5.78
2023-05-25T02:15:43.913Z,5.82
2023-05-25T02:18:46.393Z,3.83
2023-05-25T02:21:48.692Z,4.28
2023-05-25T02:24:50.867Z,4.53
2023-05-25T02:27:53.011Z,4.72
2023-05-25T02:30:55.330Z,3.45
2023-05-25T02:33:57.746Z,4.22
2023-05-25T02:37:01.624Z,5.18
2023-05-25T02:40:05.038Z,4.68
2023-05-25T02:43:07.271Z,3.50
2023-05-25T02:46:09.412Z,3.85
2023-05-25T02:49:11.861Z,3.90
2023-05-25T02:52:14.134Z,4.25
2023-05-25T02:55:18.974Z,4.55
2023-05-25T02:58:21.234Z,4.85
2023-05-25T03:01:25.771Z,5.03
2023-05-25T03:04:28.647Z,4.90
2023-05-25T03:07:31.305Z,4.82
2023-05-25T03:10:33.436Z,5.10
2023-05-25T03:13:45.776Z,5.00
2023-05-25T03:16:47.948Z,5.10
2023-05-25T03:19:50.134Z,5.55
2023-05-25T03:22:52.158Z,5.97
2023-05-25T03:25:54.301Z,5.40
2023-05-25T03:28:56.575Z,5.72
2023-05-25T03:31:58.822Z,5.22
2023-05-25T03:35:00.999Z,5.82
2023-05-25T03:38:03.123Z,5.95
2023-05-25T03:41:05.967Z,5.30
2023-05-25T03:44:08.059Z,5.55
2023-05-25T03:47:10.070Z,4.90
2023-05-25T03:50:12.449Z,5.85
2023-05-25T03:53:14.581Z,5.43
2023-05-25T03:56:16.693Z,5.13
2023-05-25T03:59:18.937Z,5.90
2023-05-25T04:02:21.188Z,4.88
2023-05-25T04:05:23.521Z,5.53
2023-05-25T04:08:26.528Z,4.68
2023-05-25T04:11:29.284Z,5.13
2023-05-25T04:14:31.475Z,5.35
2023-05-25T04:17:33.556Z,5.07
2023-05-25T04:20:36.200Z,5.43
2023-05-25T04:23:38.314Z,5.05
2023-05-25T04:26:40.444Z,6.78
2023-05-25T04:29:43.214Z,5.97
2023-05-25T04:32:46.821Z,4.82
2023-05-25T04:35:50.683Z,5.43
2023-05-25T04:38:54.998Z,6.32
2023-05-25T04:41:57.571Z,5.50
2023-05-25T04:45:00.664Z,5.28
2023-05-25T04:48:03.275Z,5.65
2023-05-25T04:51:06.596Z,4.88
2023-05-25T04:54:08.839Z,5.43
2023-05-25T04:57:11.005Z,6.25
2023-05-25T05:00:15.367Z,6.50
2023-05-25T05:03:18.385Z,5.95
2023-05-25T05:06:21.799Z,5.10
2023-05-25T05:09:24.619Z,5.28
2023-05-25T05:12:26.742Z,5.53
2023-05-25T05:15:28.853Z,5.15
2023-05-25T05:18:31.439Z,5.65
2023-05-25T05:21:33.521Z,7.00
2023-05-25T05:24:35.765Z,6.50
2023-05-25T05:27:37.872Z,7.93
2023-05-25T05:30:39.960Z,6.68
2023-05-25T05:33:42.136Z,6.63
2023-05-25T05:36:56.584Z,6.65
2023-05-25T05:39:59.811Z,8.40
2023-05-25T05:43:01.941Z,8.45
2023-05-25T05:46:04.186Z,8.63
2023-05-25T05:49:06.439Z,8.75
2023-05-25T05:52:10.413Z,8.57
2023-05-25T05:55:12.763Z,7.80
2023-05-25T05:58:15.921Z,8.98
2023-05-25T06:01:18.204Z,8.95
2023-05-25T06:04:20.327Z,7.30
2023-05-25T06:07:22.554Z,7.60
2023-05-25T06:10:24.710Z,7.82
2023-05-25T06:13:26.764Z,7.60
2023-05-25T06:16:30.031Z,8.15
2023-05-25T06:19:32.445Z,9.17
2023-05-25T06:22:34.587Z,7.93
2023-05-25T06:25:36.697Z,7.25
2023-05-25T06:28:38.809Z,8.27
2023-05-25T06:31:40.971Z,7.75
2023-05-25T06:34:43.396Z,8.52
2023-05-25T06:37:49.255Z,7.82
2023-05-25T06:40:51.488Z,8.77
2023-05-25T06:43:53.593Z,10.18
2023-05-25T06:46:55.856Z,8.88
2023-05-25T06:49:58.577Z,9.00
2023-05-25T06:53:00.814Z,10.15
2023-05-25T06:56:03.026Z,8.98
2023-05-25T06:59:05.178Z,8.68
2023-05-25T07:02:07.330Z,7.88
2023-05-25T07:05:09.973Z,8.52
2023-05-25T07:08:12.264Z,6.30
2023-05-25T07:11:14.468Z,7.35
2023-05-25T07:14:18.262Z,7.18
2023-05-25T07:17:22.926Z,8.75
2023-05-25T07:20:25.241Z,8.70
2023-05-25T07:23:27.587Z,7.00
2023-05-25T07:26:34.405Z,6.90
2023-05-25T07:29:36.634Z,6.55
2023-05-25T07:32:38.853Z,6.85
2023-05-25T07:35:41.266Z,7.25
2023-05-25T07:38:47.853Z,6.97
2023-05-25T07:41:49.986Z,6.78
2023-05-25T07:44:52.064Z,6.60
2023-05-25T07:47:54.390Z,8.63
2023-05-25T07:50:56.653Z,7.20
2023-05-25T07:53:59.170Z,7.60
2023-05-25T07:57:03.346Z,7.93
2023-05-25T08:00:08.814Z,7.53
2023-05-25T08:03:11.325Z,6.53
2023-05-25T08:06:13.871Z,6.97
2023-05-25T08:09:16.059Z,6.93
2023-05-25T08:15:23.490Z,7.50
2023-05-25T08:18:25.612Z,6.55
2023-05-25T08:21:27.826Z,6.85
2023-05-25T08:24:30.029Z,5.90
2023-05-25T08:27:35.227Z,7.38
2023-05-25T08:30:37.972Z,6.13
2023-05-25T08:33:40.354Z,6.03
2023-05-25T08:36:42.875Z,5.43
2023-05-25T08:39:44.986Z,6.30
2023-05-25T08:42:47.464Z,9.13
2023-05-25T08:45:50.167Z,5.25
2023-05-25T08:48:54.527Z,6.00
2023-05-25T08:51:58.051Z,6.75
2023-05-25T08:55:03.943Z,6.40
2023-05-25T08:58:34.252Z,7.85
2023-05-25T09:01:41.875Z,6.10
2023-05-25T09:04:44.316Z,7.65
2023-05-25T09:07:47.498Z,5.65
2023-05-25T09:10:50.597Z,6.80
2023-05-25T09:13:52.865Z,5.03
2023-05-25T09:16:55.211Z,5.65
2023-05-25T09:19:57.479Z,6.25
2023-05-25T09:23:03.288Z,4.43
2023-05-25T09:26:05.969Z,7.38
2023-05-25T09:32:10.833Z,5.72
2023-05-25T09:35:15.150Z,5.82
2023-05-25T09:38:17.807Z,4.90
2023-05-25T09:41:20.156Z,4.80
2023-05-25T09:44:22.373Z,5.07
2023-05-25T09:47:24.623Z,5.67
2023-05-25T09:50:30.346Z,4.63
2023-05-25T09:53:32.501Z,4.45
2023-05-25T09:56:34.695Z,5.50
2023-05-25T09:59:37.030Z,3.90
2023-05-25T10:02:39.307Z,5.65
2023-05-25T10:05:41.416Z,5.40
2023-05-25T10:08:46.137Z,5.35
2023-05-25T10:11:51.521Z,6.32
2023-05-25T10:14:55.299Z,5.50
2023-05-25T10:17:58.576Z,5.07
2023-05-25T10:21:05.884Z,5.35
2023-05-25T10:24:21.677Z,5.03
2023-05-25T10:27:26.961Z,5.13
2023-05-25T10:30:30.580Z,5.45
2023-05-25T10:33:34.170Z,5.25
2023-05-25T10:36:38.292Z,4.50
2023-05-25T10:39:43.903Z,4.65
2023-05-25T10:42:46.496Z,5.45
2023-05-25T10:45:49.500Z,5.78
2023-05-25T10:48:52.871Z,5.68
2023-05-25T10:52:01.129Z,4.85
2023-05-25T10:55:05.211Z,5.00
2023-05-25T10:58:09.624Z,6.45
2023-05-25T11:01:14.016Z,6.22
2023-05-25T11:04:17.475Z,6.18
2023-05-25T11:07:22.366Z,4.60
2023-05-25T11:10:43.369Z,4.68
2023-05-25T11:13:47.374Z,5.50
2023-05-25T11:17:14.808Z,4.85
2023-05-25T11:20:24.393Z,5.72
2023-05-25T11:23:26.576Z,4.30
2023-05-25T11:26:35.799Z,4.75
2023-05-25T11:29:40.180Z,6.10
2023-05-25T11:32:50.834Z,5.43
2023-05-25T11:35:55.374Z,5.78
2023-05-25T11:39:04.920Z,5.68
2023-05-25T11:45:16.879Z,6.22
2023-05-25T11:48:19.042Z,5.72
2023-05-25T11:51:25.817Z,5.15
2023-05-25T11:54:29.117Z,6.93
2023-05-25T11:57:31.232Z,5.82
2023-05-25T12:00:33.514Z,5.85
2023-05-25T12:03:35.652Z,7.07
2023-05-25T12:06:38.167Z,6.65
2023-05-25T12:09:40.290Z,6.97
2023-05-25T12:12:43.199Z,4.80
2023-05-25T12:15:46.173Z,7.40
2023-05-25T12:18:48.643Z,7.00
2023-05-25T12:21:51.969Z,7.00
2023-05-25T12:28:15.884Z,7.30
2023-05-25T12:31:26.512Z,7.53
2023-05-25T12:34:29.063Z,8.43
2023-05-25T12:37:31.672Z,7.93
2023-05-25T12:40:33.836Z,8.52
2023-05-25T12:43:44.105Z,8.90
2023-05-25T12:46:46.586Z,9.43
2023-05-25T12:49:53.397Z,9.35
2023-05-25T12:53:03.836Z,9.85
2023-05-25T12:56:07.007Z,7.63
2023-05-25T12:59:15.577Z,7.75
2023-05-25T13:02:17.777Z,8.93
2023-05-25T13:05:23.679Z,8.55
2023-05-25T13:08:25.712Z,9.43
2023-05-25T13:11:27.868Z,8.63
2023-05-25T13:14:30.657Z,8.23
2023-05-25T13:17:32.805Z,6.97
2023-05-25T13:20:36.929Z,8.85
2023-05-25T13:23:39.237Z,7.15
2023-05-25T13:26:41.386Z,7.97
2023-05-25T13:29:43.539Z,6.95
2023-05-25T13:32:46.970Z,7.47
2023-05-25T13:35:59.741Z,5.32
2023-05-25T13:39:02.527Z,5.93
2023-05-25T13:42:04.829Z,6.03
2023-05-25T13:45:07.711Z,6.15
2023-05-25T13:48:11.042Z,5.40
2023-05-25T13:51:17.264Z,5.28
2023-05-25T13:54:20.077Z,5.70
2023-05-25T13:57:22.724Z,5.83
2023-05-25T14:00:24.825Z,4.97
2023-05-25T14:03:27.244Z,4.93
2023-05-25T14:06:29.618Z,4.97
2023-05-25T14:09:32.003Z,5.43
2023-05-25T14:12:34.139Z,6.45
2023-05-25T14:15:36.638Z,4.75
2023-05-25T14:18:38.920Z,5.93
2023-05-25T14:21:41.412Z,5.00
2023-05-25T14:24:43.773Z,4.82
2023-05-25T14:27:46.301Z,4.78
2023-05-25T14:30:48.695Z,4.03
2023-05-25T14:33:50.800Z,4.38
2023-05-25T14:36:52.986Z,5.50
2023-05-25T14:39:55.177Z,4.57
2023-05-25T14:42:57.319Z,4.18
2023-05-25T14:45:59.654Z,5.75
2023-05-25T14:49:01.877Z,4.38
2023-05-25T14:52:04.175Z,4.60
2023-05-25T14:55:06.751Z,5.50
2023-05-25T14:58:09.055Z,5.22
2023-05-25T15:01:11.212Z,4.40
2023-05-25T15:04:13.996Z,4.47
2023-05-25T15:07:16.976Z,4.33
2023-05-25T15:10:20.142Z,4.97
2023-05-25T15:13:22.931Z,4.43
2023-05-25T15:19:28.237Z,4.95
2023-05-25T15:22:30.326Z,4.47
2023-05-25T15:25:35.513Z,7.88
2023-05-25T15:28:38.980Z,4.22
2023-05-25T15:31:41.606Z,5.90
2023-05-25T15:34:44.196Z,3.97
2023-05-25T15:37:48.211Z,3.90
2023-05-25T15:40:50.399Z,5.15
2023-05-25T15:44:01.517Z,5.85
2023-05-25T15:47:03.923Z,3.75
2023-05-25T15:50:06.917Z,5.22
2023-05-25T15:53:09.961Z,4.33
2023-05-25T15:56:12.284Z,4.65
2023-05-25T15:59:14.389Z,3.50
2023-05-25T16:02:16.634Z,4.00
2023-05-25T16:05:18.823Z,5.25
2023-05-25T16:08:21.896Z,4.50
2023-05-25T16:11:24.258Z,4.38
2023-05-25T16:14:26.366Z,4.40
2023-05-25T16:17:30.014Z,3.92
2023-05-25T16:20:32.244Z,5.18
2023-05-25T16:23:34.903Z,4.10
2023-05-25T16:26:37.110Z,4.18
2023-05-25T16:29:39.156Z,4.18
2023-05-25T16:32:41.364Z,4.00
2023-05-25T16:35:43.833Z,4.35
2023-05-25T16:38:46.522Z,5.25
2023-05-25T16:41:50.579Z,4.50
2023-05-25T16:44:53.067Z,3.78
2023-05-25T16:47:55.199Z,3.65
2023-05-25T16:50:58.593Z,3.95
2023-05-25T16:54:00.912Z,4.35
2023-05-25T16:57:03.340Z,5.45
2023-05-25T17:00:07.506Z,5.57
2023-05-25T17:03:10.029Z,4.72
2023-05-25T17:06:12.261Z,5.25
2023-05-25T17:09:14.469Z,4.90
2023-05-25T17:12:16.981Z,5.28
2023-05-25T17:15:19.168Z,5.40
2023-05-25T17:18:21.888Z,4.85
2023-05-25T17:21:24.236Z,5.50
2023-05-25T17:24:26.506Z,4.57
2023-05-25T17:27:28.728Z,5.25
2023-05-25T17:30:30.964Z,5.38
2023-05-25T17:33:33.120Z,5.50
2023-05-25T17:36:35.288Z,5.78
2023-05-25T17:39:37.456Z,4.18
2023-05-25T17:42:40.647Z,5.25
2023-05-25T17:45:43.020Z,5.50
2023-05-25T17:48:45.928Z,6.00
2023-05-25T17:51:48.163Z,8.45
2023-05-25T17:54:50.298Z,4.80
2023-05-25T17:57:52.552Z,4.82
2023-05-25T18:00:54.881Z,6.22
2023-05-25T18:03:57.670Z,4.60
2023-05-25T18:06:59.942Z,5.28
2023-05-25T18:10:02.090Z,6.05
2023-05-25T18:13:04.151Z,5.53
2023-05-25T18:16:06.593Z,4.68
2023-05-25T18:19:09.665Z,4.38
2023-05-25T18:22:11.904Z,5.40
2023-05-25T18:25:14.012Z,5.00
2023-05-25T18:28:16.274Z,5.32
2023-05-25T18:31:18.735Z,6.32
2023-05-25T18:34:21.251Z,4.47
2023-05-25T18:37:23.519Z,4.63
2023-05-25T18:40:25.864Z,4.60
2023-05-25T18:43:28.044Z,4.90
2023-05-25T18:46:30.548Z,5.45
2023-05-25T18:49:34.669Z,4.45
2023-05-25T18:52:36.884Z,5.18
2023-05-25T18:55:39.146Z,5.65
2023-05-25T18:58:41.607Z,5.53
2023-05-25T19:01:43.813Z,5.85
2023-05-25T19:04:46.031Z,4.30
2023-05-25T19:07:58.535Z,5.70
2023-05-25T19:11:01.623Z,5.23
2023-05-25T19:14:03.955Z,5.50
2023-05-25T19:17:06.225Z,4.85
2023-05-25T19:20:08.891Z,5.53
2023-05-25T19:23:11.713Z,5.22
2023-05-25T19:26:13.885Z,5.50
2023-05-25T19:29:16.021Z,6.13
2023-05-25T19:32:18.212Z,5.95
2023-05-25T19:35:20.712Z,5.97
2023-05-25T19:38:24.706Z,6.90
2023-05-25T19:41:28.950Z,6.15
2023-05-25T19:44:31.987Z,6.70
2023-05-25T19:47:34.070Z,7.53
2023-05-25T19:50:36.354Z,7.18
2023-05-25T19:53:38.738Z,7.95
2023-05-25T19:56:42.335Z,8.82
2023-05-25T19:59:46.441Z,7.47
2023-05-25T20:02:48.812Z,7.47
2023-05-25T20:05:50.988Z,8.13
2023-05-25T20:08:53.788Z,8.60
2023-05-25T20:11:57.695Z,7.80
2023-05-25T20:18:02.751Z,6.88
2023-05-25T20:21:05.505Z,8.38
2023-05-25T20:24:07.764Z,8.38
2023-05-25T20:27:10.006Z,7.07
2023-05-25T20:30:13.793Z,8.30
2023-05-25T20:33:17.238Z,9.18
2023-05-25T20:36:19.417Z,8.15
2023-05-25T20:39:21.517Z,8.88
2023-05-25T20:42:23.691Z,7.60
2023-05-25T20:45:25.762Z,8.20
2023-05-25T20:48:27.845Z,8.38
2023-05-25T20:51:31.104Z,7.85
2023-05-25T20:54:36.488Z,7.80
2023-05-25T21:00:41.079Z,6.65
2023-05-25T21:03:43.235Z,7.38
2023-05-25T21:06:45.899Z,7.65
2023-05-25T21:09:48.112Z,7.80
2023-05-25T21:12:50.322Z,8.82
2023-05-25T21:15:52.419Z,6.95
2023-05-25T21:18:54.536Z,6.75
2023-05-25T21:21:56.807Z,7.82
2023-05-25T21:24:59.015Z,7.25
2023-05-25T21:28:01.207Z,7.93
2023-05-25T21:31:03.419Z,7.63
2023-05-25T21:34:05.540Z,8.60
2023-05-25T21:37:07.710Z,7.07
2023-05-25T21:40:10.086Z,5.70
2023-05-25T21:43:12.298Z,7.30
2023-05-25T21:46:14.376Z,7.80
2023-05-25T21:49:16.672Z,7.60
2023-05-25T21:52:21.924Z,7.75
2023-05-25T21:55:24.992Z,7.25
2023-05-25T21:58:27.097Z,11.90
2023-05-25T22:01:29.414Z,7.70
2023-05-25T22:04:32.835Z,7.50
2023-05-25T22:07:34.961Z,6.47
2023-05-25T22:10:38.099Z,6.90
2023-05-25T22:13:40.266Z,8.25
2023-05-25T22:16:42.503Z,8.68
2023-05-25T22:19:47.105Z,7.20
2023-05-25T22:22:54.683Z,7.40
2023-05-25T22:25:56.814Z,7.72
2023-05-25T22:28:59.365Z,6.43
2023-05-25T22:32:05.472Z,8.38
2023-05-25T22:35:08.366Z,6.60
2023-05-25T22:38:10.507Z,6.70
2023-05-25T22:41:13.421Z,6.13
2023-05-25T22:44:16.047Z,7.15
2023-05-25T22:47:20.443Z,6.38
2023-05-25T22:50:22.858Z,5.97
2023-05-25T22:53:24.988Z,5.60
2023-05-25T22:56:27.890Z,5.63
2023-05-25T22:59:29.961Z,5.70
2023-05-25T23:02:33.435Z,6.00
2023-05-25T23:05:36.196Z,6.70
2023-05-25T23:08:38.486Z,5.40
2023-05-25T23:11:40.714Z,5.35
2023-05-25T23:14:44.672Z,5.63
2023-05-25T23:17:46.804Z,5.85
2023-05-25T23:20:50.656Z,7.20
2023-05-25T23:23:52.828Z,6.05
2023-05-25T23:26:54.983Z,6.13
2023-05-25T23:30:16.934Z,6.22
2023-05-25T23:33:20.192Z,6.32
2023-05-25T23:36:26.354Z,5.65
2023-05-25T23:39:28.560Z,5.82
2023-05-25T23:42:38.631Z,6.55
2023-05-25T23:45:40.826Z,6.70
2023-05-25T23:48:43.301Z,8.55
2023-05-25T23:51:45.481Z,7.45
2023-05-25T23:54:47.567Z,7.07
2023-05-25T23:57:49.690Z,8.27
